West Andover, Ohio
Current Conditions -  °F | °C
As of 9:53 PM on Friday 19 Dec 2014 (Local Time) from KHZY Reporting Station
Overcast Overcast  
Wind Chill: 23°   Ceiling: 2700
Heat Index: 29°   Visibility: 10mi
Dew Point: 21°   Wind: 6mph
Humidity: 72%   Direction: 260°W
Pressure: 30.28"   Gusts: NA
Location:  41.6317°N, 80.577°W
Report Text: KHZY 200253Z AUTO 26005KT 10SM OVC027 M02/M06 A3028 RMK AO2 SLP265 T10171061 50004
Loading
Personal Weather Stations






























Interactive Weather Map New forecast layout! Learn more

10-Day Weather Forecast

Advertisements
Track Severe Weather on mobile